sensor_id;sensor_type;location;lat;lon;timestamp;P1;durP1;ratioP1;P2;durP2;ratioP2
11313;SDS011;5712;48.858;9.206;2023-05-14T00:00:27;10.13;;;9.03;;
11313;SDS011;5712;48.858;9.206;2023-05-14T00:02:54;9.90;;;8.90;;
11313;SDS011;5712;48.858;9.206;2023-05-14T00:05:20;11.27;;;9.10;;
11313;SDS011;5712;48.858;9.206;2023-05-14T00:07:47;10.47;;;8.60;;
11313;SDS011;5712;48.858;9.206;2023-05-14T00:10:14;11.87;;;8.87;;
11313;SDS011;5712;48.858;9.206;2023-05-14T00:12:41;9.63;;;7.87;;
11313;SDS011;5712;48.858;9.206;2023-05-14T00:15:09;9.90;;;8.63;;
11313;SDS011;5712;48.858;9.206;2023-05-14T00:17:36;9.70;;;8.70;;
11313;SDS011;5712;48.858;9.206;2023-05-14T00:20:03;10.60;;;9.30;;
11313;SDS011;5712;48.858;9.206;2023-05-14T00:22:31;9.43;;;8.43;;
11313;SDS011;5712;48.858;9.206;2023-05-14T00:24:57;9.80;;;8.80;;
11313;SDS011;5712;48.858;9.206;2023-05-14T00:27:24;9.97;;;8.93;;
11313;SDS011;5712;48.858;9.206;2023-05-14T00:29:51;10.40;;;8.83;;
11313;SDS011;5712;48.858;9.206;2023-05-14T00:32:18;11.53;;;8.87;;
11313;SDS011;5712;48.858;9.206;2023-05-14T00:34:45;10.77;;;9.67;;
11313;SDS011;5712;48.858;9.206;2023-05-14T00:37:12;11.33;;;9.23;;
11313;SDS011;5712;48.858;9.206;2023-05-14T00:39:38;10.97;;;9.53;;
11313;SDS011;5712;48.858;9.206;2023-05-14T00:42:05;11.07;;;8.90;;
11313;SDS011;5712;48.858;9.206;2023-05-14T00:44:31;10.47;;;9.37;;
11313;SDS011;5712;48.858;9.206;2023-05-14T00:46:58;10.50;;;9.03;;
11313;SDS011;5712;48.858;9.206;2023-05-14T00:49:26;9.70;;;8.70;;
11313;SDS011;5712;48.858;9.206;2023-05-14T00:51:53;9.57;;;8.57;;
11313;SDS011;5712;48.858;9.206;2023-05-14T00:54:22;9.20;;;8.17;;
11313;SDS011;5712;48.858;9.206;2023-05-14T00:56:50;9.57;;;8.53;;
11313;SDS011;5712;48.858;9.206;2023-05-14T00:59:16;9.43;;;8.10;;
11313;SDS011;5712;48.858;9.206;2023-05-14T01:01:43;9.27;;;8.20;;
11313;SDS011;5712;48.858;9.206;2023-05-14T01:04:09;8.87;;;7.97;;
11313;SDS011;5712;48.858;9.206;2023-05-14T01:06:39;9.83;;;8.80;;
11313;SDS011;5712;48.858;9.206;2023-05-14T01:09:16;9.63;;;8.23;;
11313;SDS011;5712;48.858;9.206;2023-05-14T01:11:49;9.87;;;8.30;;
11313;SDS011;5712;48.858;9.206;2023-05-14T01:14:20;10.27;;;9.13;;
11313;SDS011;5712;48.858;9.206;2023-05-14T01:16:51;9.50;;;8.60;;
11313;SDS011;5712;48.858;9.206;2023-05-14T01:19:25;10.63;;;8.50;;
11313;SDS011;5712;48.858;9.206;2023-05-14T01:21:56;9.63;;;8.60;;
11313;SDS011;5712;48.858;9.206;2023-05-14T01:24:22;9.00;;;8.10;;
11313;SDS011;5712;48.858;9.206;2023-05-14T01:26:49;11.83;;;8.83;;
11313;SDS011;5712;48.858;9.206;2023-05-14T01:29:18;9.63;;;8.57;;
11313;SDS011;5712;48.858;9.206;2023-05-14T01:31:48;10.33;;;9.33;;
11313;SDS011;5712;48.858;9.206;2023-05-14T01:34:16;11.83;;;9.33;;
11313;SDS011;5712;48.858;9.206;2023-05-14T01:36:46;10.53;;;9.33;;
11313;SDS011;5712;48.858;9.206;2023-05-14T01:39:15;10.17;;;8.87;;
11313;SDS011;5712;48.858;9.206;2023-05-14T01:41:42;12.03;;;9.30;;
11313;SDS011;5712;48.858;9.206;2023-05-14T01:44:10;11.53;;;9.70;;
11313;SDS011;5712;48.858;9.206;2023-05-14T01:46:37;10.80;;;9.33;;
11313;SDS011;5712;48.858;9.206;2023-05-14T01:49:03;10.53;;;9.13;;
11313;SDS011;5712;48.858;9.206;2023-05-14T01:51:30;11.53;;;9.00;;
11313;SDS011;5712;48.858;9.206;2023-05-14T01:53:56;12.23;;;9.50;;
11313;SDS011;5712;48.858;9.206;2023-05-14T01:56:24;9.70;;;8.70;;
11313;SDS011;5712;48.858;9.206;2023-05-14T01:58:51;10.07;;;9.07;;
11313;SDS011;5712;48.858;9.206;2023-05-14T02:01:17;10.30;;;9.10;;
11313;SDS011;5712;48.858;9.206;2023-05-14T02:03:44;11.63;;;9.00;;
11313;SDS011;5712;48.858;9.206;2023-05-14T02:06:10;9.43;;;8.43;;
11313;SDS011;5712;48.858;9.206;2023-05-14T02:08:37;11.43;;;9.23;;
11313;SDS011;5712;48.858;9.206;2023-05-14T02:11:04;10.73;;;9.23;;
11313;SDS011;5712;48.858;9.206;2023-05-14T02:13:31;9.90;;;8.47;;
11313;SDS011;5712;48.858;9.206;2023-05-14T02:15:58;9.93;;;8.90;;
11313;SDS011;5712;48.858;9.206;2023-05-14T02:18:24;11.27;;;9.17;;
11313;SDS011;5712;48.858;9.206;2023-05-14T02:20:51;10.83;;;8.93;;
11313;SDS011;5712;48.858;9.206;2023-05-14T02:23:17;10.67;;;8.73;;
11313;SDS011;5712;48.858;9.206;2023-05-14T02:25:44;10.20;;;8.90;;
11313;SDS011;5712;48.858;9.206;2023-05-14T02:28:10;10.27;;;9.00;;
11313;SDS011;5712;48.858;9.206;2023-05-14T02:30:38;13.63;;;9.03;;
11313;SDS011;5712;48.858;9.206;2023-05-14T02:33:05;10.50;;;8.57;;
11313;SDS011;5712;48.858;9.206;2023-05-14T02:35:31;10.20;;;8.47;;
11313;SDS011;5712;48.858;9.206;2023-05-14T02:37:58;9.80;;;8.53;;
11313;SDS011;5712;48.858;9.206;2023-05-14T02:40:24;10.67;;;9.43;;
11313;SDS011;5712;48.858;9.206;2023-05-14T02:42:51;11.50;;;9.13;;
11313;SDS011;5712;48.858;9.206;2023-05-14T02:45:17;11.57;;;10.33;;
11313;SDS011;5712;48.858;9.206;2023-05-14T02:47:45;12.47;;;9.60;;
11313;SDS011;5712;48.858;9.206;2023-05-14T02:50:11;10.23;;;8.83;;
11313;SDS011;5712;48.858;9.206;2023-05-14T02:52:38;10.70;;;9.20;;
11313;SDS011;5712;48.858;9.206;2023-05-14T02:55:05;12.83;;;9.13;;
11313;SDS011;5712;48.858;9.206;2023-05-14T02:57:32;10.70;;;8.93;;
11313;SDS011;5712;48.858;9.206;2023-05-14T02:59:58;10.70;;;9.27;;
11313;SDS011;5712;48.858;9.206;2023-05-14T03:02:25;10.57;;;8.87;;
11313;SDS011;5712;48.858;9.206;2023-05-14T03:04:52;11.83;;;8.83;;
11313;SDS011;5712;48.858;9.206;2023-05-14T03:09:50;9.57;;;8.03;;
11313;SDS011;5712;48.858;9.206;2023-05-14T03:12:16;10.67;;;9.43;;
11313;SDS011;5712;48.858;9.206;2023-05-14T03:14:43;8.90;;;7.97;;
11313;SDS011;5712;48.858;9.206;2023-05-14T03:17:09;11.10;;;8.40;;
11313;SDS011;5712;48.858;9.206;2023-05-14T03:19:36;8.73;;;7.23;;
11313;SDS011;5712;48.858;9.206;2023-05-14T03:22:04;8.57;;;7.67;;
11313;SDS011;5712;48.858;9.206;2023-05-14T03:24:30;8.43;;;7.53;;
11313;SDS011;5712;48.858;9.206;2023-05-14T03:26:57;10.60;;;6.90;;
11313;SDS011;5712;48.858;9.206;2023-05-14T03:29:23;8.87;;;7.70;;
11313;SDS011;5712;48.858;9.206;2023-05-14T03:31:50;8.87;;;7.80;;
11313;SDS011;5712;48.858;9.206;2023-05-14T03:34:17;9.63;;;7.90;;
11313;SDS011;5712;48.858;9.206;2023-05-14T03:36:43;8.50;;;7.60;;
11313;SDS011;5712;48.858;9.206;2023-05-14T03:39:11;10.07;;;7.67;;
11313;SDS011;5712;48.858;9.206;2023-05-14T03:41:39;9.90;;;7.80;;
11313;SDS011;5712;48.858;9.206;2023-05-14T03:44:06;8.77;;;7.73;;
11313;SDS011;5712;48.858;9.206;2023-05-14T03:46:32;9.80;;;8.13;;
11313;SDS011;5712;48.858;9.206;2023-05-14T03:48:59;8.53;;;7.33;;
11313;SDS011;5712;48.858;9.206;2023-05-14T03:51:25;10.07;;;7.93;;
11313;SDS011;5712;48.858;9.206;2023-05-14T03:53:52;9.83;;;8.27;;
11313;SDS011;5712;48.858;9.206;2023-05-14T03:56:19;10.40;;;8.50;;
11313;SDS011;5712;48.858;9.206;2023-05-14T03:58:46;8.90;;;7.50;;
11313;SDS011;5712;48.858;9.206;2023-05-14T04:01:13;8.93;;;7.93;;
11313;SDS011;5712;48.858;9.206;2023-05-14T04:03:39;9.97;;;7.70;;
11313;SDS011;5712;48.858;9.206;2023-05-14T04:06:06;9.30;;;7.60;;
11313;SDS011;5712;48.858;9.206;2023-05-14T04:08:32;10.33;;;8.23;;
11313;SDS011;5712;48.858;9.206;2023-05-14T04:10:59;9.43;;;8.20;;
11313;SDS011;5712;48.858;9.206;2023-05-14T04:13:26;9.20;;;7.30;;
11313;SDS011;5712;48.858;9.206;2023-05-14T04:15:53;10.60;;;8.20;;
11313;SDS011;5712;48.858;9.206;2023-05-14T04:18:19;9.97;;;8.03;;
11313;SDS011;5712;48.858;9.206;2023-05-14T04:20:46;11.17;;;7.70;;
11313;SDS011;5712;48.858;9.206;2023-05-14T04:23:12;10.43;;;7.80;;
11313;SDS011;5712;48.858;9.206;2023-05-14T04:25:39;10.13;;;7.60;;
11313;SDS011;5712;48.858;9.206;2023-05-14T04:28:06;10.77;;;7.97;;
11313;SDS011;5712;48.858;9.206;2023-05-14T04:30:33;11.20;;;8.37;;
11313;SDS011;5712;48.858;9.206;2023-05-14T04:33:00;10.90;;;8.33;;
11313;SDS011;5712;48.858;9.206;2023-05-14T04:35:28;9.43;;;8.00;;
11313;SDS011;5712;48.858;9.206;2023-05-14T04:37:54;10.80;;;8.37;;
11313;SDS011;5712;48.858;9.206;2023-05-14T04:40:21;10.53;;;8.37;;
11313;SDS011;5712;48.858;9.206;2023-05-14T04:42:47;8.93;;;8.00;;
11313;SDS011;5712;48.858;9.206;2023-05-14T04:45:14;10.03;;;7.70;;
11313;SDS011;5712;48.858;9.206;2023-05-14T04:47:42;10.13;;;8.10;;
11313;SDS011;5712;48.858;9.206;2023-05-14T04:50:09;10.50;;;8.10;;
11313;SDS011;5712;48.858;9.206;2023-05-14T04:52:36;9.17;;;7.40;;
11313;SDS011;5712;48.858;9.206;2023-05-14T04:55:03;10.40;;;7.63;;
11313;SDS011;5712;48.858;9.206;2023-05-14T04:57:30;10.80;;;7.77;;
11313;SDS011;5712;48.858;9.206;2023-05-14T04:59:56;10.50;;;8.43;;
11313;SDS011;5712;48.858;9.206;2023-05-14T05:02:23;9.30;;;7.63;;
11313;SDS011;5712;48.858;9.206;2023-05-14T05:04:51;8.93;;;7.73;;
11313;SDS011;5712;48.858;9.206;2023-05-14T05:07:17;10.43;;;7.90;;
11313;SDS011;5712;48.858;9.206;2023-05-14T05:09:43;8.33;;;7.30;;
11313;SDS011;5712;48.858;9.206;2023-05-14T05:12:10;13.13;;;7.73;;
11313;SDS011;5712;48.858;9.206;2023-05-14T05:14:36;9.00;;;7.60;;
11313;SDS011;5712;48.858;9.206;2023-05-14T05:17:03;8.70;;;7.43;;
11313;SDS011;5712;48.858;9.206;2023-05-14T05:19:30;8.37;;;7.33;;
11313;SDS011;5712;48.858;9.206;2023-05-14T05:21:57;9.03;;;6.80;;
11313;SDS011;5712;48.858;9.206;2023-05-14T05:24:24;8.43;;;7.23;;
11313;SDS011;5712;48.858;9.206;2023-05-14T05:26:50;9.43;;;7.13;;
11313;SDS011;5712;48.858;9.206;2023-05-14T05:29:19;8.27;;;7.37;;
11313;SDS011;5712;48.858;9.206;2023-05-14T05:31:46;9.47;;;7.23;;
11313;SDS011;5712;48.858;9.206;2023-05-14T05:34:13;10.83;;;7.00;;
11313;SDS011;5712;48.858;9.206;2023-05-14T05:36:39;8.90;;;6.93;;
11313;SDS011;5712;48.858;9.206;2023-05-14T05:39:10;9.00;;;6.97;;
11313;SDS011;5712;48.858;9.206;2023-05-14T05:41:36;9.70;;;7.50;;
11313;SDS011;5712;48.858;9.206;2023-05-14T05:44:03;8.30;;;7.30;;
11313;SDS011;5712;48.858;9.206;2023-05-14T05:46:30;9.93;;;7.60;;
11313;SDS011;5712;48.858;9.206;2023-05-14T05:48:56;8.50;;;7.17;;
11313;SDS011;5712;48.858;9.206;2023-05-14T05:51:23;8.10;;;6.80;;
11313;SDS011;5712;48.858;9.206;2023-05-14T05:53:49;8.43;;;7.37;;
11313;SDS011;5712;48.858;9.206;2023-05-14T05:56:17;8.17;;;7.30;;
11313;SDS011;5712;48.858;9.206;2023-05-14T05:58:43;8.47;;;7.37;;
11313;SDS011;5712;48.858;9.206;2023-05-14T06:01:10;9.13;;;7.17;;
11313;SDS011;5712;48.858;9.206;2023-05-14T06:03:36;9.10;;;8.20;;
11313;SDS011;5712;48.858;9.206;2023-05-14T06:06:03;9.13;;;7.20;;
11313;SDS011;5712;48.858;9.206;2023-05-14T06:08:30;8.67;;;7.23;;
11313;SDS011;5712;48.858;9.206;2023-05-14T06:10:56;7.97;;;6.90;;
11313;SDS011;5712;48.858;9.206;2023-05-14T06:13:24;10.33;;;7.80;;
11313;SDS011;5712;48.858;9.206;2023-05-14T06:15:51;8.70;;;7.57;;
11313;SDS011;5712;48.858;9.206;2023-05-14T06:18:17;9.40;;;7.73;;
11313;SDS011;5712;48.858;9.206;2023-05-14T06:20:44;9.87;;;7.37;;
11313;SDS011;5712;48.858;9.206;2023-05-14T06:23:10;10.27;;;7.30;;
11313;SDS011;5712;48.858;9.206;2023-05-14T06:25:37;9.67;;;7.87;;
11313;SDS011;5712;48.858;9.206;2023-05-14T06:28:03;8.70;;;7.10;;
11313;SDS011;5712;48.858;9.206;2023-05-14T06:30:31;9.40;;;7.67;;
11313;SDS011;5712;48.858;9.206;2023-05-14T06:32:57;7.93;;;6.90;;
11313;SDS011;5712;48.858;9.206;2023-05-14T06:35:24;9.40;;;7.50;;
11313;SDS011;5712;48.858;9.206;2023-05-14T06:37:51;8.87;;;7.57;;
11313;SDS011;5712;48.858;9.206;2023-05-14T06:40:17;7.70;;;6.90;;
11313;SDS011;5712;48.858;9.206;2023-05-14T06:42:44;8.70;;;7.60;;
11313;SDS011;5712;48.858;9.206;2023-05-14T06:45:11;8.90;;;7.73;;
11313;SDS011;5712;48.858;9.206;2023-05-14T06:47:38;8.07;;;7.07;;
11313;SDS011;5712;48.858;9.206;2023-05-14T06:50:05;8.60;;;7.47;;
11313;SDS011;5712;48.858;9.206;2023-05-14T06:52:32;9.00;;;7.50;;
11313;SDS011;5712;48.858;9.206;2023-05-14T06:54:59;10.63;;;7.23;;
11313;SDS011;5712;48.858;9.206;2023-05-14T06:57:25;8.10;;;6.97;;
11313;SDS011;5712;48.858;9.206;2023-05-14T06:59:52;9.27;;;7.80;;
11313;SDS011;5712;48.858;9.206;2023-05-14T07:02:18;7.67;;;6.83;;
11313;SDS011;5712;48.858;9.206;2023-05-14T07:04:46;8.60;;;7.43;;
11313;SDS011;5712;48.858;9.206;2023-05-14T07:07:12;9.53;;;7.63;;
11313;SDS011;5712;48.858;9.206;2023-05-14T07:09:42;8.20;;;7.33;;
11313;SDS011;5712;48.858;9.206;2023-05-14T07:12:08;9.13;;;7.33;;
11313;SDS011;5712;48.858;9.206;2023-05-14T07:14:35;10.13;;;7.70;;
11313;SDS011;5712;48.858;9.206;2023-05-14T07:17:01;9.73;;;7.10;;
11313;SDS011;5712;48.858;9.206;2023-05-14T07:19:28;8.67;;;7.50;;
11313;SDS011;5712;48.858;9.206;2023-05-14T07:21:56;9.98;;;8.98;;
11313;SDS011;5712;48.858;9.206;2023-05-14T07:24:22;9.30;;;7.73;;
11313;SDS011;5712;48.858;9.206;2023-05-14T07:26:49;8.67;;;7.73;;
11313;SDS011;5712;48.858;9.206;2023-05-14T07:29:15;8.77;;;7.40;;
11313;SDS011;5712;48.858;9.206;2023-05-14T07:31:42;8.13;;;7.23;;
11313;SDS011;5712;48.858;9.206;2023-05-14T07:34:08;9.30;;;7.80;;
11313;SDS011;5712;48.858;9.206;2023-05-14T07:36:36;9.17;;;6.93;;
11313;SDS011;5712;48.858;9.206;2023-05-14T07:39:05;9.27;;;7.97;;
11313;SDS011;5712;48.858;9.206;2023-05-14T07:41:31;8.20;;;7.13;;
11313;SDS011;5712;48.858;9.206;2023-05-14T07:43:58;7.60;;;6.53;;
11313;SDS011;5712;48.858;9.206;2023-05-14T07:46:24;10.27;;;7.93;;
11313;SDS011;5712;48.858;9.206;2023-05-14T07:48:51;8.53;;;7.60;;
11313;SDS011;5712;48.858;9.206;2023-05-14T07:51:17;8.57;;;7.63;;
11313;SDS011;5712;48.858;9.206;2023-05-14T07:53:44;9.53;;;8.53;;
11313;SDS011;5712;48.858;9.206;2023-05-14T07:56:12;8.50;;;6.70;;
11313;SDS011;5712;48.858;9.206;2023-05-14T07:58:38;10.23;;;7.73;;
11313;SDS011;5712;48.858;9.206;2023-05-14T08:01:05;10.10;;;7.50;;
11313;SDS011;5712;48.858;9.206;2023-05-14T08:03:33;9.00;;;8.10;;
11313;SDS011;5712;48.858;9.206;2023-05-14T08:05:59;8.10;;;7.23;;
11313;SDS011;5712;48.858;9.206;2023-05-14T08:08:26;10.23;;;8.37;;
11313;SDS011;5712;48.858;9.206;2023-05-14T08:10:52;8.33;;;7.53;;
11313;SDS011;5712;48.858;9.206;2023-05-14T08:13:20;9.27;;;8.10;;
11313;SDS011;5712;48.858;9.206;2023-05-14T08:15:47;8.37;;;7.50;;
11313;SDS011;5712;48.858;9.206;2023-05-14T08:18:13;9.37;;;7.87;;
11313;SDS011;5712;48.858;9.206;2023-05-14T08:20:40;10.53;;;8.17;;
11313;SDS011;5712;48.858;9.206;2023-05-14T08:23:06;10.43;;;8.93;;
11313;SDS011;5712;48.858;9.206;2023-05-14T08:25:33;10.20;;;8.57;;
11313;SDS011;5712;48.858;9.206;2023-05-14T08:27:59;10.37;;;8.77;;
11313;SDS011;5712;48.858;9.206;2023-05-14T08:30:28;9.85;;;8.85;;
11313;SDS011;5712;48.858;9.206;2023-05-14T08:32:55;11.55;;;9.50;;
11313;SDS011;5712;48.858;9.206;2023-05-14T08:35:23;9.27;;;8.27;;
11313;SDS011;5712;48.858;9.206;2023-05-14T08:37:50;9.20;;;8.30;;
11313;SDS011;5712;48.858;9.206;2023-05-14T08:40:16;8.73;;;7.87;;
11313;SDS011;5712;48.858;9.206;2023-05-14T08:42:43;8.70;;;7.80;;
11313;SDS011;5712;48.858;9.206;2023-05-14T08:45:10;9.90;;;8.33;;
11313;SDS011;5712;48.858;9.206;2023-05-14T08:47:43;9.20;;;8.10;;
11313;SDS011;5712;48.858;9.206;2023-05-14T08:50:13;9.77;;;8.27;;
11313;SDS011;5712;48.858;9.206;2023-05-14T08:52:40;11.87;;;8.40;;
11313;SDS011;5712;48.858;9.206;2023-05-14T08:55:07;8.67;;;7.70;;
11313;SDS011;5712;48.858;9.206;2023-05-14T08:57:34;8.70;;;7.53;;
11313;SDS011;5712;48.858;9.206;2023-05-14T09:00:01;10.17;;;8.00;;
11313;SDS011;5712;48.858;9.206;2023-05-14T09:02:32;9.53;;;8.47;;
11313;SDS011;5712;48.858;9.206;2023-05-14T09:05:01;9.20;;;8.07;;
11313;SDS011;5712;48.858;9.206;2023-05-14T09:07:28;9.37;;;7.90;;
11313;SDS011;5712;48.858;9.206;2023-05-14T09:09:54;13.67;;;8.80;;
11313;SDS011;5712;48.858;9.206;2023-05-14T09:12:21;11.23;;;9.73;;
11313;SDS011;5712;48.858;9.206;2023-05-14T09:14:48;10.97;;;9.77;;
11313;SDS011;5712;48.858;9.206;2023-05-14T09:17:15;10.70;;;8.90;;
11313;SDS011;5712;48.858;9.206;2023-05-14T09:19:42;9.93;;;8.73;;
11313;SDS011;5712;48.858;9.206;2023-05-14T09:22:13;10.43;;;9.07;;
11313;SDS011;5712;48.858;9.206;2023-05-14T09:24:40;11.00;;;9.10;;
11313;SDS011;5712;48.858;9.206;2023-05-14T09:27:08;10.70;;;8.93;;
11313;SDS011;5712;48.858;9.206;2023-05-14T09:29:40;9.90;;;8.90;;
11313;SDS011;5712;48.858;9.206;2023-05-14T09:32:07;10.37;;;8.57;;
11313;SDS011;5712;48.858;9.206;2023-05-14T09:34:34;8.57;;;7.77;;
11313;SDS011;5712;48.858;9.206;2023-05-14T09:37:03;10.67;;;8.00;;
11313;SDS011;5712;48.858;9.206;2023-05-14T09:39:32;9.03;;;7.73;;
11313;SDS011;5712;48.858;9.206;2023-05-14T09:42:00;9.03;;;8.13;;
11313;SDS011;5712;48.858;9.206;2023-05-14T09:44:27;10.10;;;9.00;;
11313;SDS011;5712;48.858;9.206;2023-05-14T09:46:53;9.03;;;8.13;;
11313;SDS011;5712;48.858;9.206;2023-05-14T09:49:21;10.37;;;7.70;;
11313;SDS011;5712;48.858;9.206;2023-05-14T09:51:48;7.67;;;6.80;;
11313;SDS011;5712;48.858;9.206;2023-05-14T09:54:15;7.70;;;6.90;;
11313;SDS011;5712;48.858;9.206;2023-05-14T09:56:43;7.00;;;6.27;;
11313;SDS011;5712;48.858;9.206;2023-05-14T09:59:10;6.33;;;5.73;;
11313;SDS011;5712;48.858;9.206;2023-05-14T10:01:36;6.77;;;6.07;;
11313;SDS011;5712;48.858;9.206;2023-05-14T10:04:05;6.43;;;5.70;;
11313;SDS011;5712;48.858;9.206;2023-05-14T10:06:35;7.10;;;5.70;;
11313;SDS011;5712;48.858;9.206;2023-05-14T10:09:03;7.03;;;6.33;;
11313;SDS011;5712;48.858;9.206;2023-05-14T10:11:31;7.47;;;6.53;;
11313;SDS011;5712;48.858;9.206;2023-05-14T10:14:01;6.53;;;5.93;;
11313;SDS011;5712;48.858;9.206;2023-05-14T10:16:32;6.90;;;6.27;;
11313;SDS011;5712;48.858;9.206;2023-05-14T10:19:01;7.53;;;6.80;;
11313;SDS011;5712;48.858;9.206;2023-05-14T10:21:33;7.23;;;6.53;;
11313;SDS011;5712;48.858;9.206;2023-05-14T10:24:01;7.83;;;7.03;;
11313;SDS011;5712;48.858;9.206;2023-05-14T10:26:29;7.13;;;6.43;;
11313;SDS011;5712;48.858;9.206;2023-05-14T10:28:56;9.43;;;7.77;;
11313;SDS011;5712;48.858;9.206;2023-05-14T10:31:24;7.83;;;6.83;;
11313;SDS011;5712;48.858;9.206;2023-05-14T10:37:03;8.40;;;6.77;;
11313;SDS011;5712;48.858;9.206;2023-05-14T10:39:40;9.93;;;7.10;;
11313;SDS011;5712;48.858;9.206;2023-05-14T10:42:07;8.60;;;7.70;;
11313;SDS011;5712;48.858;9.206;2023-05-14T10:44:36;11.07;;;8.77;;
11313;SDS011;5712;48.858;9.206;2023-05-14T10:47:09;8.87;;;7.97;;
11313;SDS011;5712;48.858;9.206;2023-05-14T10:49:36;8.13;;;7.33;;
11313;SDS011;5712;48.858;9.206;2023-05-14T10:52:03;7.93;;;7.13;;
11313;SDS011;5712;48.858;9.206;2023-05-14T10:54:33;8.63;;;6.97;;
11313;SDS011;5712;48.858;9.206;2023-05-14T10:57:00;8.07;;;6.67;;
11313;SDS011;5712;48.858;9.206;2023-05-14T10:59:27;8.20;;;7.37;;
11313;SDS011;5712;48.858;9.206;2023-05-14T11:01:55;8.90;;;7.07;;
11313;SDS011;5712;48.858;9.206;2023-05-14T11:04:23;7.60;;;6.80;;
11313;SDS011;5712;48.858;9.206;2023-05-14T11:06:50;7.93;;;7.13;;
11313;SDS011;5712;48.858;9.206;2023-05-14T11:09:19;7.23;;;6.53;;
11313;SDS011;5712;48.858;9.206;2023-05-14T11:11:46;7.03;;;6.33;;
11313;SDS011;5712;48.858;9.206;2023-05-14T11:14:13;7.17;;;6.27;;
11313;SDS011;5712;48.858;9.206;2023-05-14T11:16:39;6.20;;;5.60;;
11313;SDS011;5712;48.858;9.206;2023-05-14T11:19:06;7.73;;;6.93;;
11313;SDS011;5712;48.858;9.206;2023-05-14T11:21:34;6.43;;;5.57;;
11313;SDS011;5712;48.858;9.206;2023-05-14T11:24:00;6.50;;;5.83;;
11313;SDS011;5712;48.858;9.206;2023-05-14T11:26:30;6.73;;;6.03;;
11313;SDS011;5712;48.858;9.206;2023-05-14T11:28:56;6.60;;;5.90;;
11313;SDS011;5712;48.858;9.206;2023-05-14T11:31:24;8.73;;;5.70;;
11313;SDS011;5712;48.858;9.206;2023-05-14T11:33:50;6.77;;;5.80;;
11313;SDS011;5712;48.858;9.206;2023-05-14T11:36:17;6.00;;;5.30;;
11313;SDS011;5712;48.858;9.206;2023-05-14T11:38:48;7.70;;;5.83;;
11313;SDS011;5712;48.858;9.206;2023-05-14T11:41:16;6.13;;;5.57;;
11313;SDS011;5712;48.858;9.206;2023-05-14T11:43:44;5.40;;;4.90;;
11313;SDS011;5712;48.858;9.206;2023-05-14T11:46:15;5.77;;;5.20;;
11313;SDS011;5712;48.858;9.206;2023-05-14T11:48:42;5.93;;;5.00;;
11313;SDS011;5712;48.858;9.206;2023-05-14T11:51:09;6.00;;;5.40;;
11313;SDS011;5712;48.858;9.206;2023-05-14T11:53:36;6.00;;;5.47;;
11313;SDS011;5712;48.858;9.206;2023-05-14T11:56:04;6.23;;;5.63;;
11313;SDS011;5712;48.858;9.206;2023-05-14T11:58:30;6.60;;;5.33;;
11313;SDS011;5712;48.858;9.206;2023-05-14T12:00:57;5.67;;;5.17;;
11313;SDS011;5712;48.858;9.206;2023-05-14T12:03:24;5.80;;;4.90;;
11313;SDS011;5712;48.858;9.206;2023-05-14T12:05:53;6.47;;;5.40;;
11313;SDS011;5712;48.858;9.206;2023-05-14T12:08:20;6.07;;;5.53;;
11313;SDS011;5712;48.858;9.206;2023-05-14T12:10:47;5.47;;;4.97;;
11313;SDS011;5712;48.858;9.206;2023-05-14T12:13:15;5.90;;;5.37;;
11313;SDS011;5712;48.858;9.206;2023-05-14T12:15:45;5.90;;;5.40;;
11313;SDS011;5712;48.858;9.206;2023-05-14T12:18:12;5.97;;;5.37;;
11313;SDS011;5712;48.858;9.206;2023-05-14T12:20:44;4.70;;;4.30;;
11313;SDS011;5712;48.858;9.206;2023-05-14T12:23:12;5.43;;;4.93;;
11313;SDS011;5712;48.858;9.206;2023-05-14T12:25:38;6.17;;;5.20;;
11313;SDS011;5712;48.858;9.206;2023-05-14T12:28:12;5.90;;;4.67;;
11313;SDS011;5712;48.858;9.206;2023-05-14T12:30:41;5.10;;;4.60;;
11313;SDS011;5712;48.858;9.206;2023-05-14T12:33:07;5.13;;;4.63;;
11313;SDS011;5712;48.858;9.206;2023-05-14T12:35:34;5.10;;;4.63;;
11313;SDS011;5712;48.858;9.206;2023-05-14T12:38:01;5.97;;;5.37;;
11313;SDS011;5712;48.858;9.206;2023-05-14T12:40:28;5.73;;;5.07;;
11313;SDS011;5712;48.858;9.206;2023-05-14T12:42:54;5.43;;;4.93;;
11313;SDS011;5712;48.858;9.206;2023-05-14T12:45:21;4.80;;;4.30;;
11313;SDS011;5712;48.858;9.206;2023-05-14T12:47:49;5.97;;;4.60;;
11313;SDS011;5712;48.858;9.206;2023-05-14T12:50:16;4.93;;;4.43;;
11313;SDS011;5712;48.858;9.206;2023-05-14T12:52:42;5.37;;;4.87;;
11313;SDS011;5712;48.858;9.206;2023-05-14T12:55:10;4.90;;;4.47;;
11313;SDS011;5712;48.858;9.206;2023-05-14T12:57:37;5.10;;;4.60;;
11313;SDS011;5712;48.858;9.206;2023-05-14T13:00:04;6.47;;;4.70;;
11313;SDS011;5712;48.858;9.206;2023-05-14T13:02:32;5.40;;;4.57;;
11313;SDS011;5712;48.858;9.206;2023-05-14T13:04:59;4.67;;;4.27;;
11313;SDS011;5712;48.858;9.206;2023-05-14T13:07:26;5.07;;;4.60;;
11313;SDS011;5712;48.858;9.206;2023-05-14T13:09:55;4.67;;;4.20;;
11313;SDS011;5712;48.858;9.206;2023-05-14T13:12:21;6.30;;;4.93;;
11313;SDS011;5712;48.858;9.206;2023-05-14T13:14:48;5.20;;;4.70;;
11313;SDS011;5712;48.858;9.206;2023-05-14T13:17:14;4.83;;;4.40;;
11313;SDS011;5712;48.858;9.206;2023-05-14T13:19:41;4.53;;;4.13;;
11313;SDS011;5712;48.858;9.206;2023-05-14T13:22:09;4.57;;;4.17;;
11313;SDS011;5712;48.858;9.206;2023-05-14T13:24:35;4.57;;;4.17;;
11313;SDS011;5712;48.858;9.206;2023-05-14T13:27:02;4.67;;;4.27;;
11313;SDS011;5712;48.858;9.206;2023-05-14T13:29:28;5.00;;;4.50;;
11313;SDS011;5712;48.858;9.206;2023-05-14T13:31:55;5.67;;;4.53;;
11313;SDS011;5712;48.858;9.206;2023-05-14T13:34:22;4.93;;;4.53;;
11313;SDS011;5712;48.858;9.206;2023-05-14T13:36:48;4.97;;;4.53;;
11313;SDS011;5712;48.858;9.206;2023-05-14T13:39:16;5.00;;;4.50;;
11313;SDS011;5712;48.858;9.206;2023-05-14T13:41:46;4.73;;;4.33;;
11313;SDS011;5712;48.858;9.206;2023-05-14T13:44:14;4.23;;;3.83;;
11313;SDS011;5712;48.858;9.206;2023-05-14T13:46:41;4.50;;;4.10;;
11313;SDS011;5712;48.858;9.206;2023-05-14T13:49:07;4.27;;;3.87;;
11313;SDS011;5712;48.858;9.206;2023-05-14T13:51:34;4.10;;;3.77;;
11313;SDS011;5712;48.858;9.206;2023-05-14T13:54:00;4.07;;;3.33;;
11313;SDS011;5712;48.858;9.206;2023-05-14T13:56:28;4.10;;;3.57;;
11313;SDS011;5712;48.858;9.206;2023-05-14T13:58:55;3.50;;;3.20;;
11313;SDS011;5712;48.858;9.206;2023-05-14T14:01:23;3.70;;;3.40;;
11313;SDS011;5712;48.858;9.206;2023-05-14T14:03:50;3.83;;;3.43;;
11313;SDS011;5712;48.858;9.206;2023-05-14T14:06:16;4.47;;;4.03;;
11313;SDS011;5712;48.858;9.206;2023-05-14T14:08:43;4.50;;;4.07;;
11313;SDS011;5712;48.858;9.206;2023-05-14T14:11:10;4.43;;;3.83;;
11313;SDS011;5712;48.858;9.206;2023-05-14T14:13:38;6.43;;;4.00;;
11313;SDS011;5712;48.858;9.206;2023-05-14T14:16:05;5.00;;;4.50;;
11313;SDS011;5712;48.858;9.206;2023-05-14T14:18:32;4.20;;;3.80;;
11313;SDS011;5712;48.858;9.206;2023-05-14T14:20:58;4.20;;;3.87;;
11313;SDS011;5712;48.858;9.206;2023-05-14T14:23:25;3.80;;;3.50;;
11313;SDS011;5712;48.858;9.206;2023-05-14T14:25:51;3.73;;;3.43;;
11313;SDS011;5712;48.858;9.206;2023-05-14T14:28:18;3.83;;;3.23;;
11313;SDS011;5712;48.858;9.206;2023-05-14T14:30:46;4.10;;;3.07;;
11313;SDS011;5712;48.858;9.206;2023-05-14T14:33:12;4.87;;;3.40;;
11313;SDS011;5712;48.858;9.206;2023-05-14T14:35:39;3.60;;;3.30;;
11313;SDS011;5712;48.858;9.206;2023-05-14T14:38:05;3.40;;;3.10;;
11313;SDS011;5712;48.858;9.206;2023-05-14T14:40:32;4.10;;;2.90;;
11313;SDS011;5712;48.858;9.206;2023-05-14T14:42:58;3.10;;;2.80;;
11313;SDS011;5712;48.858;9.206;2023-05-14T14:45:25;3.10;;;2.90;;
11313;SDS011;5712;48.858;9.206;2023-05-14T14:48:20;3.30;;;3.00;;
11313;SDS011;5712;48.858;9.206;2023-05-14T14:50:50;3.60;;;3.30;;
11313;SDS011;5712;48.858;9.206;2023-05-14T14:53:17;5.03;;;3.63;;
11313;SDS011;5712;48.858;9.206;2023-05-14T14:55:44;3.90;;;3.50;;
11313;SDS011;5712;48.858;9.206;2023-05-14T14:58:10;4.60;;;3.73;;
11313;SDS011;5712;48.858;9.206;2023-05-14T15:00:37;4.83;;;4.23;;
11313;SDS011;5712;48.858;9.206;2023-05-14T15:03:06;4.20;;;3.80;;